sensor_id;sensor_type;location;lat;lon;timestamp;pressure;altitude;pressure_sealevel;temperature;humidity
5691;BME280;2870;42.680;23.364;2023-04-07T00:02:11;94851.19;;;4.12;55.15
5691;BME280;2870;42.680;23.364;2023-04-07T00:04:38;94852.19;;;4.15;56.80
5691;BME280;2870;42.680;23.364;2023-04-07T00:07:05;94840.56;;;4.54;55.70
5691;BME280;2870;42.680;23.364;2023-04-07T00:09:31;94850.00;;;4.45;54.64
5691;BME280;2870;42.680;23.364;2023-04-07T00:12:00;94850.81;;;4.59;54.67
5691;BME280;2870;42.680;23.364;2023-04-07T00:14:27;94854.94;;;4.52;53.46
5691;BME280;2870;42.680;23.364;2023-04-07T00:16:54;94854.00;;;4.50;54.53
5691;BME280;2870;42.680;23.364;2023-04-07T00:19:21;94854.22;;;4.52;53.82
5691;BME280;2870;42.680;23.364;2023-04-07T00:21:47;94853.31;;;4.44;55.73
5691;BME280;2870;42.680;23.364;2023-04-07T00:24:14;94849.47;;;4.47;57.89
5691;BME280;2870;42.680;23.364;2023-04-07T00:26:41;94848.19;;;4.29;59.38
5691;BME280;2870;42.680;23.364;2023-04-07T00:29:09;94846.72;;;4.09;60.13
5691;BME280;2870;42.680;23.364;2023-04-07T00:31:36;94854.22;;;4.14;59.51
5691;BME280;2870;42.680;23.364;2023-04-07T00:34:03;94847.41;;;3.91;61.71
5691;BME280;2870;42.680;23.364;2023-04-07T00:36:30;94848.53;;;3.82;62.57
5691;BME280;2870;42.680;23.364;2023-04-07T00:38:57;94845.88;;;3.71;64.08
5691;BME280;2870;42.680;23.364;2023-04-07T00:41:24;94856.28;;;3.40;65.97
5691;BME280;2870;42.680;23.364;2023-04-07T00:43:51;94852.81;;;3.34;66.98
5691;BME280;2870;42.680;23.364;2023-04-07T00:46:21;94849.34;;;3.28;67.05
5691;BME280;2870;42.680;23.364;2023-04-07T00:48:48;94850.13;;;3.23;67.90
5691;BME280;2870;42.680;23.364;2023-04-07T00:51:15;94838.75;;;3.02;68.11
5691;BME280;2870;42.680;23.364;2023-04-07T00:53:42;94843.78;;;2.68;69.56
5691;BME280;2870;42.680;23.364;2023-04-07T00:56:08;94849.22;;;2.44;70.54
5691;BME280;2870;42.680;23.364;2023-04-07T00:58:35;94845.25;;;2.39;70.85
5691;BME280;2870;42.680;23.364;2023-04-07T01:01:07;94849.34;;;2.21;70.77
5691;BME280;2870;42.680;23.364;2023-04-07T01:03:43;94847.78;;;2.31;70.73
5691;BME280;2870;42.680;23.364;2023-04-07T01:06:13;94847.59;;;2.24;71.55
5691;BME280;2870;42.680;23.364;2023-04-07T01:08:48;94844.06;;;2.23;72.67
5691;BME280;2870;42.680;23.364;2023-04-07T01:11:23;94840.78;;;2.25;73.39
5691;BME280;2870;42.680;23.364;2023-04-07T01:13:52;94838.03;;;2.25;72.63
5691;BME280;2870;42.680;23.364;2023-04-07T01:16:23;94835.41;;;1.91;73.68
5691;BME280;2870;42.680;23.364;2023-04-07T01:18:54;94841.03;;;2.27;74.08
5691;BME280;2870;42.680;23.364;2023-04-07T01:21:25;94840.03;;;2.24;73.01
5691;BME280;2870;42.680;23.364;2023-04-07T01:24:04;94844.84;;;2.18;73.22
5691;BME280;2870;42.680;23.364;2023-04-07T01:26:34;94833.81;;;2.12;74.17
5691;BME280;2870;42.680;23.364;2023-04-07T01:29:28;94839.19;;;1.94;74.99
5691;BME280;2870;42.680;23.364;2023-04-07T01:31:57;94835.13;;;2.00;74.91
5691;BME280;2870;42.680;23.364;2023-04-07T01:34:26;94838.25;;;2.27;75.50
5691;BME280;2870;42.680;23.364;2023-04-07T01:36:57;94831.28;;;2.15;75.42
5691;BME280;2870;42.680;23.364;2023-04-07T01:39:26;94815.53;;;1.93;74.74
5691;BME280;2870;42.680;23.364;2023-04-07T01:41:54;94827.59;;;2.42;74.45
5691;BME280;2870;42.680;23.364;2023-04-07T01:44:21;94824.13;;;2.72;73.29
5691;BME280;2870;42.680;23.364;2023-04-07T01:46:53;94806.25;;;2.37;73.54
5691;BME280;2870;42.680;23.364;2023-04-07T01:49:21;94824.38;;;2.32;73.87
5691;BME280;2870;42.680;23.364;2023-04-07T01:51:49;94823.72;;;2.15;74.51
5691;BME280;2870;42.680;23.364;2023-04-07T01:54:17;94831.34;;;2.03;74.86
5691;BME280;2870;42.680;23.364;2023-04-07T01:56:44;94822.94;;;2.20;74.85
5691;BME280;2870;42.680;23.364;2023-04-07T01:59:11;94817.38;;;2.67;74.10
5691;BME280;2870;42.680;23.364;2023-04-07T02:01:38;94808.97;;;2.78;71.00
5691;BME280;2870;42.680;23.364;2023-04-07T02:04:11;94814.00;;;2.44;73.00
5691;BME280;2870;42.680;23.364;2023-04-07T02:06:43;94791.69;;;2.31;72.82
5691;BME280;2870;42.680;23.364;2023-04-07T02:09:14;94822.81;;;2.43;74.53
5691;BME280;2870;42.680;23.364;2023-04-07T02:11:43;94806.75;;;2.35;73.40
5691;BME280;2870;42.680;23.364;2023-04-07T02:14:11;94811.84;;;2.26;74.11
5691;BME280;2870;42.680;23.364;2023-04-07T02:16:40;94804.03;;;2.30;75.15
5691;BME280;2870;42.680;23.364;2023-04-07T02:19:10;94811.53;;;2.35;73.08
5691;BME280;2870;42.680;23.364;2023-04-07T02:21:38;94819.13;;;2.29;73.78
5691;BME280;2870;42.680;23.364;2023-04-07T02:24:06;94814.38;;;2.24;73.14
5691;BME280;2870;42.680;23.364;2023-04-07T02:26:33;94814.81;;;2.39;72.87
5691;BME280;2870;42.680;23.364;2023-04-07T02:29:00;94816.06;;;2.74;73.64
5691;BME280;2870;42.680;23.364;2023-04-07T02:31:27;94816.38;;;2.95;71.96
5691;BME280;2870;42.680;23.364;2023-04-07T02:33:54;94815.56;;;2.70;72.29
5691;BME280;2870;42.680;23.364;2023-04-07T02:36:22;94817.09;;;3.01;71.85
5691;BME280;2870;42.680;23.364;2023-04-07T02:38:49;94813.94;;;3.15;72.05
5691;BME280;2870;42.680;23.364;2023-04-07T02:41:16;94817.25;;;2.84;71.98
5691;BME280;2870;42.680;23.364;2023-04-07T02:43:43;94816.31;;;3.00;72.08
5691;BME280;2870;42.680;23.364;2023-04-07T02:46:09;94826.25;;;2.90;72.65
5691;BME280;2870;42.680;23.364;2023-04-07T02:48:36;94821.59;;;3.04;71.11
5691;BME280;2870;42.680;23.364;2023-04-07T02:51:03;94819.47;;;2.55;72.37
5691;BME280;2870;42.680;23.364;2023-04-07T02:53:32;94834.94;;;2.39;73.01
5691;BME280;2870;42.680;23.364;2023-04-07T02:55:59;94823.00;;;2.56;71.82
5691;BME280;2870;42.680;23.364;2023-04-07T02:58:25;94828.50;;;2.61;71.16
5691;BME280;2870;42.680;23.364;2023-04-07T03:00:52;94828.94;;;2.65;71.87
5691;BME280;2870;42.680;23.364;2023-04-07T03:03:19;94825.13;;;2.74;72.57
5691;BME280;2870;42.680;23.364;2023-04-07T03:05:46;94819.84;;;2.71;71.25
5691;BME280;2870;42.680;23.364;2023-04-07T03:08:12;94820.38;;;2.99;71.21
5691;BME280;2870;42.680;23.364;2023-04-07T03:10:41;94827.47;;;2.95;70.99
5691;BME280;2870;42.680;23.364;2023-04-07T03:13:08;94802.47;;;2.70;71.60
5691;BME280;2870;42.680;23.364;2023-04-07T03:15:37;94824.28;;;2.85;70.63
5691;BME280;2870;42.680;23.364;2023-04-07T03:18:03;94831.63;;;2.77;70.87
5691;BME280;2870;42.680;23.364;2023-04-07T03:20:30;94831.09;;;2.84;71.38
5691;BME280;2870;42.680;23.364;2023-04-07T03:22:57;94832.06;;;2.86;73.21
5691;BME280;2870;42.680;23.364;2023-04-07T03:25:24;94821.72;;;2.87;71.82
5691;BME280;2870;42.680;23.364;2023-04-07T03:27:53;94819.69;;;2.57;71.53
5691;BME280;2870;42.680;23.364;2023-04-07T03:30:20;94817.72;;;2.52;71.99
5691;BME280;2870;42.680;23.364;2023-04-07T03:32:47;94814.13;;;2.63;71.85
5691;BME280;2870;42.680;23.364;2023-04-07T03:35:14;94817.28;;;2.78;72.33
5691;BME280;2870;42.680;23.364;2023-04-07T03:37:41;94816.75;;;2.80;72.18
5691;BME280;2870;42.680;23.364;2023-04-07T03:40:08;94811.63;;;2.59;71.29
5691;BME280;2870;42.680;23.364;2023-04-07T03:42:35;94811.31;;;2.69;71.06
5691;BME280;2870;42.680;23.364;2023-04-07T03:45:04;94820.19;;;2.61;70.47
5691;BME280;2870;42.680;23.364;2023-04-07T03:47:31;94819.13;;;2.64;71.35
5691;BME280;2870;42.680;23.364;2023-04-07T03:49:58;94822.94;;;2.61;71.96
5691;BME280;2870;42.680;23.364;2023-04-07T03:52:24;94825.81;;;3.10;71.14
5691;BME280;2870;42.680;23.364;2023-04-07T03:54:51;94836.91;;;3.10;69.95
5691;BME280;2870;42.680;23.364;2023-04-07T03:57:18;94831.78;;;2.90;69.82
5691;BME280;2870;42.680;23.364;2023-04-07T03:59:45;94831.09;;;2.48;72.11
5691;BME280;2870;42.680;23.364;2023-04-07T04:02:17;94815.88;;;2.60;71.77
5691;BME280;2870;42.680;23.364;2023-04-07T04:04:43;94835.28;;;2.60;73.14
5691;BME280;2870;42.680;23.364;2023-04-07T04:07:10;94834.03;;;2.61;72.07
5691;BME280;2870;42.680;23.364;2023-04-07T04:09:37;94837.81;;;2.58;72.96
5691;BME280;2870;42.680;23.364;2023-04-07T04:12:04;94847.53;;;2.71;73.22
5691;BME280;2870;42.680;23.364;2023-04-07T04:14:31;94845.09;;;2.61;72.09
5691;BME280;2870;42.680;23.364;2023-04-07T04:16:58;94843.13;;;2.56;73.99
5691;BME280;2870;42.680;23.364;2023-04-07T04:19:26;94851.50;;;2.81;71.84
5691;BME280;2870;42.680;23.364;2023-04-07T04:21:53;94846.63;;;2.92;72.36
5691;BME280;2870;42.680;23.364;2023-04-07T04:24:20;94846.56;;;2.98;72.42
5691;BME280;2870;42.680;23.364;2023-04-07T04:26:47;94846.94;;;2.83;73.45
5691;BME280;2870;42.680;23.364;2023-04-07T04:29:14;94854.00;;;2.43;73.94
5691;BME280;2870;42.680;23.364;2023-04-07T04:31:40;94860.53;;;2.87;72.61
5691;BME280;2870;42.680;23.364;2023-04-07T04:34:07;94859.03;;;2.86;72.74
5691;BME280;2870;42.680;23.364;2023-04-07T04:36:35;94869.84;;;2.48;71.26
5691;BME280;2870;42.680;23.364;2023-04-07T04:39:02;94865.81;;;2.49;71.93
5691;BME280;2870;42.680;23.364;2023-04-07T04:41:29;94866.50;;;2.61;70.94
5691;BME280;2870;42.680;23.364;2023-04-07T04:43:56;94872.88;;;2.50;70.39
5691;BME280;2870;42.680;23.364;2023-04-07T04:46:23;94869.66;;;2.76;69.40
5691;BME280;2870;42.680;23.364;2023-04-07T04:48:50;94881.50;;;2.77;69.93
5691;BME280;2870;42.680;23.364;2023-04-07T04:51:18;94869.63;;;3.12;69.92
5691;BME280;2870;42.680;23.364;2023-04-07T04:53:46;94860.63;;;3.06;71.55
5691;BME280;2870;42.680;23.364;2023-04-07T04:56:13;94871.13;;;2.83;70.25
5691;BME280;2870;42.680;23.364;2023-04-07T04:58:40;94871.34;;;2.90;68.87
5691;BME280;2870;42.680;23.364;2023-04-07T05:01:10;94878.63;;;2.88;69.19
5691;BME280;2870;42.680;23.364;2023-04-07T05:03:37;94885.69;;;2.89;69.25
5691;BME280;2870;42.680;23.364;2023-04-07T05:06:04;94882.50;;;3.09;68.84
5691;BME280;2870;42.680;23.364;2023-04-07T05:08:31;94890.13;;;3.03;69.34
5691;BME280;2870;42.680;23.364;2023-04-07T05:10:59;94881.50;;;3.12;68.77
5691;BME280;2870;42.680;23.364;2023-04-07T05:13:26;94888.78;;;3.40;67.03
5691;BME280;2870;42.680;23.364;2023-04-07T05:15:55;94891.13;;;3.60;67.96
5691;BME280;2870;42.680;23.364;2023-04-07T05:18:22;94895.66;;;3.63;68.32
5691;BME280;2870;42.680;23.364;2023-04-07T05:20:49;94909.34;;;4.05;67.69
5691;BME280;2870;42.680;23.364;2023-04-07T05:23:16;94897.84;;;4.14;65.73
5691;BME280;2870;42.680;23.364;2023-04-07T05:25:43;94897.34;;;3.91;67.02
5691;BME280;2870;42.680;23.364;2023-04-07T05:28:11;94913.19;;;3.96;66.68
5691;BME280;2870;42.680;23.364;2023-04-07T05:30:38;94899.91;;;3.89;66.66
5691;BME280;2870;42.680;23.364;2023-04-07T05:33:05;94899.53;;;4.22;66.62
5691;BME280;2870;42.680;23.364;2023-04-07T05:35:31;94910.34;;;4.26;65.90
5691;BME280;2870;42.680;23.364;2023-04-07T05:37:58;94903.53;;;4.03;67.35
5691;BME280;2870;42.680;23.364;2023-04-07T05:40:25;94905.41;;;4.38;67.19
5691;BME280;2870;42.680;23.364;2023-04-07T05:42:52;94905.31;;;4.24;64.18
5691;BME280;2870;42.680;23.364;2023-04-07T05:45:20;94899.75;;;4.24;63.67
5691;BME280;2870;42.680;23.364;2023-04-07T05:47:47;94902.16;;;3.90;65.44
5691;BME280;2870;42.680;23.364;2023-04-07T05:50:15;94900.56;;;3.76;66.13
5691;BME280;2870;42.680;23.364;2023-04-07T05:52:41;94897.34;;;3.91;65.50
5691;BME280;2870;42.680;23.364;2023-04-07T05:55:08;94902.16;;;4.52;65.74
5691;BME280;2870;42.680;23.364;2023-04-07T05:57:35;94909.16;;;4.59;63.74
5691;BME280;2870;42.680;23.364;2023-04-07T06:00:02;94902.66;;;4.13;66.27
5691;BME280;2870;42.680;23.364;2023-04-07T06:02:30;94910.16;;;4.18;65.94
5691;BME280;2870;42.680;23.364;2023-04-07T06:04:57;94904.66;;;3.69;67.02
5691;BME280;2870;42.680;23.364;2023-04-07T06:07:24;94906.09;;;4.01;67.19
5691;BME280;2870;42.680;23.364;2023-04-07T06:09:51;94901.66;;;4.54;66.01
5691;BME280;2870;42.680;23.364;2023-04-07T06:12:17;94907.88;;;4.41;65.10
5691;BME280;2870;42.680;23.364;2023-04-07T06:14:46;94902.34;;;4.60;63.75
5691;BME280;2870;42.680;23.364;2023-04-07T06:17:17;94894.13;;;4.87;60.39
5691;BME280;2870;42.680;23.364;2023-04-07T06:19:45;94908.63;;;4.79;61.53
5691;BME280;2870;42.680;23.364;2023-04-07T06:22:12;94901.81;;;5.13;60.40
5691;BME280;2870;42.680;23.364;2023-04-07T06:24:39;94907.13;;;5.29;60.78
5691;BME280;2870;42.680;23.364;2023-04-07T06:27:06;94908.50;;;5.68;59.02
5691;BME280;2870;42.680;23.364;2023-04-07T06:29:33;94914.03;;;6.14;57.60
5691;BME280;2870;42.680;23.364;2023-04-07T06:31:59;94907.72;;;6.13;57.59
5691;BME280;2870;42.680;23.364;2023-04-07T06:34:26;94903.44;;;6.25;56.23
5691;BME280;2870;42.680;23.364;2023-04-07T06:36:55;94916.50;;;6.30;56.02
5691;BME280;2870;42.680;23.364;2023-04-07T06:39:22;94906.50;;;5.95;55.13
5691;BME280;2870;42.680;23.364;2023-04-07T06:41:49;94912.41;;;6.31;55.70
5691;BME280;2870;42.680;23.364;2023-04-07T06:44:16;94910.06;;;6.35;54.90
5691;BME280;2870;42.680;23.364;2023-04-07T06:46:43;94914.56;;;6.86;53.32
5691;BME280;2870;42.680;23.364;2023-04-07T06:49:11;94908.78;;;7.60;51.03
5691;BME280;2870;42.680;23.364;2023-04-07T06:51:38;94887.81;;;7.66;50.83
5691;BME280;2870;42.680;23.364;2023-04-07T06:54:06;94912.84;;;8.01;48.82
5691;BME280;2870;42.680;23.364;2023-04-07T06:56:37;94912.44;;;8.54;47.95
5691;BME280;2870;42.680;23.364;2023-04-07T06:59:03;94908.59;;;8.72;47.34
5691;BME280;2870;42.680;23.364;2023-04-07T07:01:31;94907.19;;;9.01;46.67
5691;BME280;2870;42.680;23.364;2023-04-07T07:03:57;94907.44;;;8.60;47.79
5691;BME280;2870;42.680;23.364;2023-04-07T07:06:25;94910.03;;;9.17;46.48
5691;BME280;2870;42.680;23.364;2023-04-07T07:08:52;94907.94;;;8.94;46.76
5691;BME280;2870;42.680;23.364;2023-04-07T07:11:20;94908.44;;;9.90;44.79
5691;BME280;2870;42.680;23.364;2023-04-07T07:13:47;94896.84;;;9.40;45.63
5691;BME280;2870;42.680;23.364;2023-04-07T07:16:13;94910.31;;;10.26;44.04
5691;BME280;2870;42.680;23.364;2023-04-07T07:18:40;94911.44;;;10.38;43.54
5691;BME280;2870;42.680;23.364;2023-04-07T07:21:07;94914.63;;;9.66;43.77
5691;BME280;2870;42.680;23.364;2023-04-07T07:23:34;94920.03;;;9.79;45.04
5691;BME280;2870;42.680;23.364;2023-04-07T07:26:02;94925.94;;;11.15;44.45
5691;BME280;2870;42.680;23.364;2023-04-07T07:28:31;94929.34;;;11.71;42.35
5691;BME280;2870;42.680;23.364;2023-04-07T07:30:58;94928.75;;;10.59;43.18
5691;BME280;2870;42.680;23.364;2023-04-07T07:33:25;94929.91;;;10.18;44.75
5691;BME280;2870;42.680;23.364;2023-04-07T07:35:52;94934.22;;;9.89;43.85
5691;BME280;2870;42.680;23.364;2023-04-07T07:38:18;94936.81;;;10.09;45.23
5691;BME280;2870;42.680;23.364;2023-04-07T07:40:45;94930.09;;;10.20;43.11
5691;BME280;2870;42.680;23.364;2023-04-07T07:43:12;94933.47;;;10.03;44.63
5691;BME280;2870;42.680;23.364;2023-04-07T07:45:40;94933.75;;;8.72;47.28
5691;BME280;2870;42.680;23.364;2023-04-07T07:48:07;94928.81;;;8.93;44.37
5691;BME280;2870;42.680;23.364;2023-04-07T07:50:34;94941.97;;;9.14;45.61
5691;BME280;2870;42.680;23.364;2023-04-07T07:53:02;94934.00;;;8.45;46.06
5691;BME280;2870;42.680;23.364;2023-04-07T07:55:28;94939.03;;;8.47;47.01
5691;BME280;2870;42.680;23.364;2023-04-07T07:57:55;94930.97;;;8.72;47.54
5691;BME280;2870;42.680;23.364;2023-04-07T08:00:22;94936.13;;;8.96;46.10
5691;BME280;2870;42.680;23.364;2023-04-07T08:02:50;94932.47;;;9.32;44.72
5691;BME280;2870;42.680;23.364;2023-04-07T08:05:17;94931.75;;;9.39;40.36
5691;BME280;2870;42.680;23.364;2023-04-07T08:07:44;94936.22;;;8.83;40.66
5691;BME280;2870;42.680;23.364;2023-04-07T08:10:12;94927.69;;;8.89;40.25
5691;BME280;2870;42.680;23.364;2023-04-07T08:12:39;94927.44;;;9.31;39.88
5691;BME280;2870;42.680;23.364;2023-04-07T08:15:06;94925.78;;;8.76;40.99
5691;BME280;2870;42.680;23.364;2023-04-07T08:17:34;94928.59;;;8.84;40.16
5691;BME280;2870;42.680;23.364;2023-04-07T08:20:03;94930.69;;;10.34;40.92
5691;BME280;2870;42.680;23.364;2023-04-07T08:22:30;94936.75;;;10.71;37.81
5691;BME280;2870;42.680;23.364;2023-04-07T08:24:56;94926.00;;;10.14;38.00
5691;BME280;2870;42.680;23.364;2023-04-07T08:27:23;94936.09;;;9.71;37.41
5691;BME280;2870;42.680;23.364;2023-04-07T08:29:58;94945.78;;;10.54;39.85
5691;BME280;2870;42.680;23.364;2023-04-07T08:32:25;94915.41;;;8.99;39.09
5691;BME280;2870;42.680;23.364;2023-04-07T08:34:54;94926.66;;;9.22;39.47
5691;BME280;2870;42.680;23.364;2023-04-07T08:37:22;94933.31;;;8.96;38.89
5691;BME280;2870;42.680;23.364;2023-04-07T08:39:49;94934.88;;;9.28;40.50
5691;BME280;2870;42.680;23.364;2023-04-07T08:42:19;94926.00;;;9.91;39.60
5691;BME280;2870;42.680;23.364;2023-04-07T08:44:50;94929.00;;;10.31;38.59
5691;BME280;2870;42.680;23.364;2023-04-07T08:47:18;94924.16;;;10.01;40.92
5691;BME280;2870;42.680;23.364;2023-04-07T08:49:47;94909.94;;;9.83;39.05
5691;BME280;2870;42.680;23.364;2023-04-07T08:52:21;94933.84;;;9.85;39.93
5691;BME280;2870;42.680;23.364;2023-04-07T08:54:49;94915.53;;;10.22;39.27
5691;BME280;2870;42.680;23.364;2023-04-07T08:57:17;94936.47;;;11.07;37.55
5691;BME280;2870;42.680;23.364;2023-04-07T08:59:45;94940.19;;;9.70;38.02
5691;BME280;2870;42.680;23.364;2023-04-07T09:02:13;94933.44;;;9.42;38.42
5691;BME280;2870;42.680;23.364;2023-04-07T09:04:42;94936.25;;;9.42;41.42
5691;BME280;2870;42.680;23.364;2023-04-07T09:07:09;94932.94;;;10.28;40.38
5691;BME280;2870;42.680;23.364;2023-04-07T09:09:36;94934.81;;;10.88;38.11
5691;BME280;2870;42.680;23.364;2023-04-07T09:12:04;94939.94;;;11.88;38.34
5691;BME280;2870;42.680;23.364;2023-04-07T09:14:31;94936.22;;;11.78;37.28
5691;BME280;2870;42.680;23.364;2023-04-07T09:16:58;94935.72;;;11.06;38.37
5691;BME280;2870;42.680;23.364;2023-04-07T09:19:26;94936.09;;;12.26;37.28
5691;BME280;2870;42.680;23.364;2023-04-07T09:21:52;94932.94;;;12.22;35.86
5691;BME280;2870;42.680;23.364;2023-04-07T09:24:20;94940.00;;;11.73;35.78
5691;BME280;2870;42.680;23.364;2023-04-07T09:26:47;94934.66;;;11.27;36.84
5691;BME280;2870;42.680;23.364;2023-04-07T09:29:19;94933.44;;;10.57;38.03
5691;BME280;2870;42.680;23.364;2023-04-07T09:31:47;94923.47;;;10.71;39.00
5691;BME280;2870;42.680;23.364;2023-04-07T09:34:23;94925.22;;;10.21;37.78
5691;BME280;2870;42.680;23.364;2023-04-07T09:36:50;94929.91;;;10.18;37.50
5691;BME280;2870;42.680;23.364;2023-04-07T09:39:17;94929.13;;;10.64;37.19
5691;BME280;2870;42.680;23.364;2023-04-07T09:41:45;94937.94;;;10.52;37.13
5691;BME280;2870;42.680;23.364;2023-04-07T09:44:12;94937.78;;;10.98;38.46
5691;BME280;2870;42.680;23.364;2023-04-07T09:46:49;94933.84;;;9.77;38.50
5691;BME280;2870;42.680;23.364;2023-04-07T09:49:17;94937.75;;;10.50;37.70
5691;BME280;2870;42.680;23.364;2023-04-07T09:51:55;94932.44;;;10.77;37.61
5691;BME280;2870;42.680;23.364;2023-04-07T09:54:40;94938.69;;;10.38;36.99
5691;BME280;2870;42.680;23.364;2023-04-07T09:57:07;94950.88;;;10.25;38.17
5691;BME280;2870;42.680;23.364;2023-04-07T09:59:36;94950.66;;;10.46;38.03
5691;BME280;2870;42.680;23.364;2023-04-07T10:02:05;94948.38;;;10.67;38.67
5691;BME280;2870;42.680;23.364;2023-04-07T10:04:31;94954.63;;;11.71;37.42
5691;BME280;2870;42.680;23.364;2023-04-07T10:06:59;94939.84;;;11.38;38.69
5691;BME280;2870;42.680;23.364;2023-04-07T10:09:28;94945.81;;;12.84;37.50
5691;BME280;2870;42.680;23.364;2023-04-07T10:11:56;94952.09;;;13.54;35.47
5691;BME280;2870;42.680;23.364;2023-04-07T10:14:29;94952.38;;;13.75;35.52
5691;BME280;2870;42.680;23.364;2023-04-07T10:16:57;94945.84;;;12.42;36.00
5691;BME280;2870;42.680;23.364;2023-04-07T10:19:28;94948.97;;;12.29;37.82
5691;BME280;2870;42.680;23.364;2023-04-07T10:21:57;94955.31;;;11.14;36.50
5691;BME280;2870;42.680;23.364;2023-04-07T10:24:53;94940.59;;;10.35;38.03
5691;BME280;2870;42.680;23.364;2023-04-07T10:27:30;94936.22;;;10.65;38.94
5691;BME280;2870;42.680;23.364;2023-04-07T10:29:58;94942.97;;;11.09;39.50
5691;BME280;2870;42.680;23.364;2023-04-07T10:32:26;94938.69;;;10.45;39.36
5691;BME280;2870;42.680;23.364;2023-04-07T10:35:00;94945.03;;;11.09;38.76
5691;BME280;2870;42.680;23.364;2023-04-07T10:37:27;94939.44;;;10.23;39.61
5691;BME280;2870;42.680;23.364;2023-04-07T10:43:00;94954.22;;;9.85;41.65
5691;BME280;2870;42.680;23.364;2023-04-07T10:45:52;94959.28;;;10.25;42.05
5691;BME280;2870;42.680;23.364;2023-04-07T10:48:21;94950.97;;;10.73;41.81
5691;BME280;2870;42.680;23.364;2023-04-07T10:51:16;94949.31;;;11.18;40.75
5691;BME280;2870;42.680;23.364;2023-04-07T10:54:15;94952.06;;;10.77;41.48
5691;BME280;2870;42.680;23.364;2023-04-07T10:57:05;94948.28;;;10.27;41.84
5691;BME280;2870;42.680;23.364;2023-04-07T10:59:34;94953.28;;;9.90;41.83
5691;BME280;2870;42.680;23.364;2023-04-07T11:02:32;94954.00;;;9.68;42.91
5691;BME280;2870;42.680;23.364;2023-04-07T11:04:59;94957.78;;;10.01;42.26
5691;BME280;2870;42.680;23.364;2023-04-07T11:07:46;94960.19;;;9.74;41.05
5691;BME280;2870;42.680;23.364;2023-04-07T11:10:14;94957.03;;;10.16;42.05
5691;BME280;2870;42.680;23.364;2023-04-07T11:12:43;94961.88;;;10.23;41.41
5691;BME280;2870;42.680;23.364;2023-04-07T11:15:18;94958.72;;;10.34;41.70
5691;BME280;2870;42.680;23.364;2023-04-07T11:17:46;94954.56;;;10.20;41.91
5691;BME280;2870;42.680;23.364;2023-04-07T11:20:13;94969.03;;;11.02;40.42
5691;BME280;2870;42.680;23.364;2023-04-07T11:22:40;94965.06;;;10.50;41.37
5691;BME280;2870;42.680;23.364;2023-04-07T11:25:20;94964.50;;;9.90;41.72
5691;BME280;2870;42.680;23.364;2023-04-07T11:27:52;94960.59;;;9.93;42.62
5691;BME280;2870;42.680;23.364;2023-04-07T11:30:19;94963.19;;;10.22;43.14
5691;BME280;2870;42.680;23.364;2023-04-07T11:32:50;94963.72;;;9.97;42.50
5691;BME280;2870;42.680;23.364;2023-04-07T11:35:17;94971.94;;;10.49;44.17
5691;BME280;2870;42.680;23.364;2023-04-07T11:37:43;94971.78;;;10.01;42.78
5691;BME280;2870;42.680;23.364;2023-04-07T11:40:10;94974.41;;;10.06;42.40
5691;BME280;2870;42.680;23.364;2023-04-07T11:42:42;94968.63;;;10.35;41.70
5691;BME280;2870;42.680;23.364;2023-04-07T11:45:15;94965.63;;;10.10;42.52
5691;BME280;2870;42.680;23.364;2023-04-07T11:47:42;94962.25;;;10.50;42.57
5691;BME280;2870;42.680;23.364;2023-04-07T11:50:09;94979.06;;;10.57;42.51
5691;BME280;2870;42.680;23.364;2023-04-07T11:52:40;94967.09;;;9.96;43.24
5691;BME280;2870;42.680;23.364;2023-04-07T11:55:16;94972.28;;;10.76;43.06
5691;BME280;2870;42.680;23.364;2023-04-07T11:57:44;94970.44;;;10.63;41.72
5691;BME280;2870;42.680;23.364;2023-04-07T12:00:13;94966.19;;;11.10;42.66
5691;BME280;2870;42.680;23.364;2023-04-07T12:02:41;94969.09;;;11.35;42.20
5691;BME280;2870;42.680;23.364;2023-04-07T12:05:08;94962.47;;;11.48;42.67
5691;BME280;2870;42.680;23.364;2023-04-07T12:07:35;94960.19;;;11.13;42.10
5691;BME280;2870;42.680;23.364;2023-04-07T12:10:17;94965.06;;;10.50;43.14
5691;BME280;2870;42.680;23.364;2023-04-07T12:12:46;94965.16;;;10.82;42.20
5691;BME280;2870;42.680;23.364;2023-04-07T12:15:13;94973.03;;;11.64;41.19
5691;BME280;2870;42.680;23.364;2023-04-07T12:17:44;94960.34;;;11.15;40.60
5691;BME280;2870;42.680;23.364;2023-04-07T12:20:12;94942.00;;;10.74;42.72
5691;BME280;2870;42.680;23.364;2023-04-07T12:22:39;94968.16;;;10.77;41.92
5691;BME280;2870;42.680;23.364;2023-04-07T12:25:07;94961.31;;;11.10;42.56
5691;BME280;2870;42.680;23.364;2023-04-07T12:27:34;94959.34;;;11.36;41.85
5691;BME280;2870;42.680;23.364;2023-04-07T12:30:02;94978.31;;;11.60;41.24
5691;BME280;2870;42.680;23.364;2023-04-07T12:32:29;94969.47;;;10.76;41.90
5691;BME280;2870;42.680;23.364;2023-04-07T12:34:57;94964.03;;;10.85;42.16
5691;BME280;2870;42.680;23.364;2023-04-07T12:37:24;94971.44;;;11.06;41.67
5691;BME280;2870;42.680;23.364;2023-04-07T12:39:50;94965.59;;;10.64;42.13
5691;BME280;2870;42.680;23.364;2023-04-07T12:42:17;94958.13;;;11.14;42.02
5691;BME280;2870;42.680;23.364;2023-04-07T12:44:44;94956.22;;;10.69;42.10
5691;BME280;2870;42.680;23.364;2023-04-07T12:47:12;94956.66;;;10.12;43.42
5691;BME280;2870;42.680;23.364;2023-04-07T12:49:39;94954.22;;;10.46;43.64
5691;BME280;2870;42.680;23.364;2023-04-07T12:52:06;94964.59;;;10.76;44.86
5691;BME280;2870;42.680;23.364;2023-04-07T12:54:32;94954.94;;;11.10;42.74
5691;BME280;2870;42.680;23.364;2023-04-07T12:56:59;94962.47;;;11.40;42.96
5691;BME280;2870;42.680;23.364;2023-04-07T12:59:26;94961.16;;;10.30;42.87
5691;BME280;2870;42.680;23.364;2023-04-07T13:01:53;94967.88;;;10.12;43.59
5691;BME280;2870;42.680;23.364;2023-04-07T13:04:22;94967.47;;;10.23;43.82
5691;BME280;2870;42.680;23.364;2023-04-07T13:06:51;94967.97;;;10.82;43.37
5691;BME280;2870;42.680;23.364;2023-04-07T13:09:18;94966.53;;;10.43;43.18
5691;BME280;2870;42.680;23.364;2023-04-07T13:11:44;94968.06;;;10.29;43.15
5691;BME280;2870;42.680;23.364;2023-04-07T13:14:11;94967.84;;;10.42;45.36
5691;BME280;2870;42.680;23.364;2023-04-07T13:16:38;94971.59;;;10.37;43.48
5691;BME280;2870;42.680;23.364;2023-04-07T13:19:05;94973.13;;;10.38;42.90
5691;BME280;2870;42.680;23.364;2023-04-07T13:21:35;94978.53;;;10.28;42.79
5691;BME280;2870;42.680;23.364;2023-04-07T13:24:01;94968.59;;;9.89;43.82
5691;BME280;2870;42.680;23.364;2023-04-07T13:26:28;94973.84;;;10.31;44.29
5691;BME280;2870;42.680;23.364;2023-04-07T13:28:55;94975.91;;;10.00;43.80